Time;durP1;ratioP1;P1;durP2;ratioP2;P2;SDS_P1;SDS_P2;PMS_P1;PMS_P2;Temp;Humidity;BMP_temperature;BMP_pressure;BME280_temperature;BME280_humidity;BME280_pressure;Samples;Min_cycle;Max_cycle;Signal;HPM_P1;HPM_P2
2021/04/03 00:00:24;;;;;;;5.07;3.30;;;;;;;4.70;70.52;101744.00;5038430;28;20517;-49
2021/04/03 00:02:51;;;;;;;10.70;3.75;;;;;;;4.66;71.08;101747.19;5038112;28;20033;-48
2021/04/03 00:05:17;;;;;;;7.47;4.15;;;;;;;4.51;72.52;101737.44;5037523;28;20024;-47
2021/04/03 00:07:43;;;;;;;6.20;3.65;;;;;;;4.57;71.24;101741.19;5039640;28;20043;-45
2021/04/03 00:10:18;;;;;;;8.43;3.92;;;;;;;4.44;72.29;101746.31;5042108;28;20033;-44
2021/04/03 00:12:43;;;;;;;7.75;3.97;;;;;;;4.34;72.84;101745.78;5038842;28;20033;-47
2021/04/03 00:15:11;;;;;;;10.85;4.15;;;;;;;4.31;72.69;101749.63;5038955;28;20067;-46
2021/04/03 00:17:36;;;;;;;10.88;4.05;;;;;;;4.26;72.74;101744.00;5040210;28;20029;-47
2021/04/03 00:20:04;;;;;;;5.22;3.53;;;;;;;4.15;73.43;101745.31;5036517;28;20032;-45
2021/04/03 00:22:29;;;;;;;12.48;4.38;;;;;;;4.11;73.47;101744.00;5041027;28;20060;-45
2021/04/03 00:24:55;;;;;;;6.03;3.58;;;;;;;4.06;73.40;101748.19;5040383;28;20170;-47
2021/04/03 00:27:21;;;;;;;6.95;3.50;;;;;;;4.01;73.90;101747.91;5042219;28;20445;-45
2021/04/03 00:29:46;;;;;;;10.50;4.82;;;;;;;3.96;73.56;101750.31;5038944;28;20021;-47
2021/04/03 00:32:12;;;;;;;9.48;3.90;;;;;;;3.89;74.69;101745.69;5038117;28;20662;-44
2021/04/03 00:34:37;;;;;;;9.48;3.90;;;;;;;3.87;74.73;101741.59;5023060;28;20028;-46
2021/04/03 00:37:03;;;;;;;11.32;3.70;;;;;;;3.83;75.60;101741.13;5037751;28;20032;-44
2021/04/03 00:39:29;;;;;;;8.73;4.03;;;;;;;3.78;75.20;101748.78;5037572;28;20029;-44
2021/04/03 00:41:55;;;;;;;7.20;3.90;;;;;;;3.77;75.60;101752.44;5037123;28;20074;-45
2021/04/03 00:44:20;;;;;;;8.43;3.30;;;;;;;3.74;75.32;101750.13;5043158;28;20029;-45
2021/04/03 00:46:46;;;;;;;7.65;3.67;;;;;;;3.71;75.72;101761.09;5040649;28;20573;-46
2021/04/03 00:49:12;;;;;;;6.55;3.80;;;;;;;3.69;75.62;101755.16;5040607;28;20111;-46
2021/04/03 00:51:39;;;;;;;7.82;3.63;;;;;;;3.67;75.55;101762.47;5040609;28;20113;-45
2021/04/03 00:54:06;;;;;;;8.45;4.07;;;;;;;3.70;75.22;101767.41;5024520;28;20102;-46
2021/04/03 00:56:32;;;;;;;8.18;4.07;;;;;;;3.74;74.59;101768.69;5018388;28;20029;-46
2021/04/03 00:58:58;;;;;;;14.43;5.15;;;;;;;3.76;74.93;101764.03;5040140;28;21575;-47
2021/04/03 01:01:23;;;;;;;8.20;3.90;;;;;;;3.81;74.79;101777.59;5038550;28;20479;-45
2021/04/03 01:03:49;;;;;;;10.07;3.83;;;;;;;3.82;74.97;101776.59;5021963;28;20033;-45
2021/04/03 01:06:15;;;;;;;9.23;3.85;;;;;;;3.87;74.91;101774.22;5039886;28;20036;-45
2021/04/03 01:08:41;;;;;;;13.57;4.10;;;;;;;3.86;75.95;101769.91;5042298;28;20039;-46
2021/04/03 01:11:07;;;;;;;8.70;3.72;;;;;;;3.84;75.65;101777.22;5044173;28;20740;-45
2021/04/03 01:13:53;;;;;;;7.88;3.95;;;;;;;3.77;76.17;101773.66;5042722;28;20078;-44
2021/04/03 01:16:18;;;;;;;;;;;;;;;3.63;76.52;101763.81;5031748;28;20025;-46
2021/04/03 01:19:06;;;;;;;11.18;4.38;;;;;;;3.58;76.11;101763.50;5043013;28;19994;-47
2021/04/03 01:22:08;;;;;;;10.80;4.43;;;;;;;3.43;78.17;101770.59;5046216;28;20029;-45
2021/04/03 01:24:52;;;;;;;9.65;4.40;;;;;;;3.39;77.78;101767.44;5037849;28;20098;-45
2021/04/03 01:27:20;;;;;;;8.35;4.30;;;;;;;3.32;78.10;101772.63;5042834;28;20032;-46
2021/04/03 01:29:51;;;;;;;14.07;4.45;;;;;;;3.28;78.24;101774.00;5042246;28;20082;-45
2021/04/03 01:32:24;;;;;;;10.27;4.53;;;;;;;3.18;78.73;101773.38;5041972;28;20063;-45
2021/04/03 01:34:52;;;;;;;14.70;5.18;;;;;;;3.22;77.56;101779.16;5041924;28;20126;-45
2021/04/03 01:37:21;;;;;;;14.35;5.18;;;;;;;3.14;78.01;101782.69;5039057;28;20864;-45
2021/04/03 01:39:51;;;;;;;8.90;4.20;;;;;;;3.14;77.94;101784.50;5044587;28;20036;-44
2021/04/03 01:42:27;;;;;;;12.38;5.05;;;;;;;3.13;77.60;101785.50;5040616;28;20021;-46
2021/04/03 01:44:57;;;;;;;10.73;4.50;;;;;;;3.12;77.24;101789.16;5042837;28;20510;-47
2021/04/03 01:47:26;;;;;;;11.05;4.40;;;;;;;3.06;77.61;101797.78;5023109;28;20024;-45
2021/04/03 01:49:54;;;;;;;9.93;4.50;;;;;;;2.98;78.45;101794.16;5044335;28;20064;-45
2021/04/03 01:52:32;;;;;;;11.63;4.60;;;;;;;2.92;78.59;101799.34;5041104;28;20033;-45
2021/04/03 01:55:03;;;;;;;6.70;3.95;;;;;;;2.90;78.22;101807.47;5040935;28;20136;-47
2021/04/03 01:57:30;;;;;;;11.38;4.88;;;;;;;2.82;78.94;101809.28;5041005;28;20091;-45
2021/04/03 01:59:56;;;;;;;9.25;3.92;;;;;;;2.73;79.34;101804.03;5045703;28;20086;-47
2021/04/03 02:02:23;;;;;;;8.73;4.15;;;;;;;2.58;80.60;101805.75;5042273;28;20119;-47
2021/04/03 02:04:49;;;;;;;12.50;4.50;;;;;;;2.68;78.98;101806.34;5039438;28;20058;-44
2021/04/03 02:07:20;;;;;;;10.88;4.63;;;;;;;2.65;78.96;101809.34;5041056;28;20482;-44
2021/04/03 02:09:51;;;;;;;9.48;4.47;;;;;;;2.65;79.20;101808.53;5043184;28;20028;-45
2021/04/03 02:12:19;;;;;;;9.68;4.50;;;;;;;2.58;79.48;101815.50;5039790;28;20030;-47
2021/04/03 02:14:48;;;;;;;8.60;4.10;;;;;;;2.48;80.88;101809.56;5042313;28;20048;-45
2021/04/03 02:17:17;;;;;;;15.27;4.85;;;;;;;2.53;79.38;101810.72;5041508;28;20060;-45
2021/04/03 02:19:43;;;;;;;8.63;4.65;;;;;;;2.50;79.33;101815.50;5041919;28;20040;-45
2021/04/03 02:22:16;;;;;;;9.02;4.70;;;;;;;2.48;79.53;101809.56;5022733;28;20124;-45
2021/04/03 02:24:45;;;;;;;12.93;5.13;;;;;;;2.39;79.95;101808.75;5042647;28;20029;-45
2021/04/03 02:27:11;;;;;;;12.40;4.55;;;;;;;2.39;79.64;101814.06;5042283;28;20060;-48
2021/04/03 02:29:38;;;;;;;8.57;4.95;;;;;;;2.35;79.84;101823.31;5040076;28;20166;-45
2021/04/03 02:32:06;;;;;;;14.30;4.53;;;;;;;2.27;80.35;101824.16;5041508;28;20033;-45
2021/04/03 02:34:32;;;;;;;13.50;4.55;;;;;;;2.24;80.24;101829.78;5040769;28;20073;-45
2021/04/03 02:36:57;;;;;;;11.30;4.63;;;;;;;2.25;80.20;101830.59;5023817;28;20032;-44
2021/04/03 02:39:23;;;;;;;16.45;5.10;;;;;;;2.16;81.02;101827.16;5041942;28;20013;-46
2021/04/03 02:41:59;;;;;;;10.30;4.50;;;;;;;2.10;80.64;101830.44;5045911;28;20091;-46
2021/04/03 02:44:39;;;;;;;14.23;4.88;;;;;;;1.98;81.87;101822.03;5041920;28;20165;-44
2021/04/03 02:47:23;;;;;;;12.95;5.32;;;;;;;1.93;81.46;101829.59;5039285;28;20116;-44
2021/04/03 02:49:58;;;;;;;9.68;4.93;;;;;;;1.99;80.40;101833.44;5040350;28;20012;-46
2021/04/03 02:52:27;;;;;;;13.27;5.63;;;;;;;1.89;81.79;101838.88;5042390;28;20025;-46
2021/04/03 02:54:54;;;;;;;13.60;5.22;;;;;;;1.83;81.77;101841.34;5042220;28;20518;-45
2021/04/03 02:57:20;;;;;;;14.65;6.03;;;;;;;1.69;83.68;101841.00;5042830;28;20020;-45
2021/04/03 02:59:50;;;;;;;15.27;5.68;;;;;;;1.55;85.07;101836.34;5039797;28;20028;-45
2021/04/03 03:02:19;;;;;;;16.02;6.25;;;;;;;1.60;83.66;101844.59;5039712;28;20115;-44
2021/04/03 03:04:46;;;;;;;16.15;6.25;;;;;;;1.39;85.52;101842.41;5045752;28;20403;-45
2021/04/03 03:07:13;;;;;;;14.00;5.88;;;;;;;1.37;85.96;101838.28;5039500;28;20064;-46
2021/04/03 03:09:42;;;;;;;14.85;5.35;;;;;;;1.42;85.02;101838.63;5042599;28;20051;-44
2021/04/03 03:12:12;;;;;;;17.77;5.80;;;;;;;1.46;83.59;101842.59;5042389;28;20044;-45
2021/04/03 03:14:40;;;;;;;15.65;6.10;;;;;;;1.39;83.87;101834.47;5044079;28;20037;-45
2021/04/03 03:17:06;;;;;;;11.80;5.70;;;;;;;1.39;84.82;101834.47;5040326;28;20021;-44
2021/04/03 03:19:33;;;;;;;10.95;5.68;;;;;;;1.39;84.07;101842.41;5042124;28;20676;-44
2021/04/03 03:21:59;;;;;;;12.30;5.78;;;;;;;1.35;85.19;101840.25;5041791;28;20039;-45
2021/04/03 03:24:25;;;;;;;16.42;5.90;;;;;;;1.18;86.28;101834.09;5038133;28;20033;-47
2021/04/03 03:26:52;;;;;;;17.00;6.50;;;;;;;1.12;86.91;101834.75;5043314;28;20032;-45
2021/04/03 03:29:18;;;;;;;18.95;6.50;;;;;;;1.09;87.64;101838.53;5039570;28;20449;-45
2021/04/03 03:31:44;;;;;;;14.73;5.72;;;;;;;1.12;86.59;101832.09;5039588;28;22307;-45
2021/04/03 03:34:10;;;;;;;15.60;6.07;;;;;;;1.18;85.43;101829.63;5044480;28;21144;-44
2021/04/03 03:36:38;;;;;;;13.50;6.80;;;;;;;1.13;86.54;101839.03;5037451;28;20498;-44
2021/04/03 03:39:05;;;;;;;14.20;6.57;;;;;;;1.05;88.60;101829.25;5039249;28;20355;-46
2021/04/03 03:41:33;;;;;;;17.20;6.70;;;;;;;1.04;88.98;101829.41;5025815;28;20035;-44
2021/04/03 03:44:00;;;;;;;14.70;6.50;;;;;;;1.04;89.09;101840.81;5042358;28;20021;-44
2021/04/03 03:46:25;;;;;;;21.48;6.75;;;;;;;1.03;89.22;101831.22;5040894;28;20032;-45
2021/04/03 03:48:51;;;;;;;16.38;6.18;;;;;;;1.01;88.74;101827.09;5041942;28;20026;-44
2021/04/03 03:51:17;;;;;;;12.95;6.10;;;;;;;0.96;89.44;101827.59;5044218;28;20775;-47
2021/04/03 03:53:42;;;;;;;13.45;6.47;;;;;;;0.91;89.91;101837.78;5042854;28;20037;-46
2021/04/03 03:56:08;;;;;;;15.32;6.93;;;;;;;0.88;89.43;101838.91;5040917;28;20070;-44
2021/04/03 03:58:33;;;;;;;14.95;7.38;;;;;;;0.87;89.50;101839.91;5041983;28;20036;-44
2021/04/03 04:00:59;;;;;;;13.15;6.32;;;;;;;0.78;89.62;101840.88;5040539;28;20036;-45
2021/04/03 04:03:25;;;;;;;14.02;6.68;;;;;;;0.81;89.14;101845.00;5039244;28;20029;-45
2021/04/03 04:05:50;;;;;;;16.83;7.25;;;;;;;0.83;88.56;101850.94;5040784;28;20051;-45
2021/04/03 04:08:18;;;;;;;18.83;6.55;;;;;;;0.66;90.01;101854.47;5042394;28;20708;-44
2021/04/03 04:10:44;;;;;;;19.45;7.30;;;;;;;0.70;89.34;101856.63;5041979;28;20443;-45
2021/04/03 04:13:10;;;;;;;17.85;7.55;;;;;;;0.65;89.36;101872.09;5044329;28;20025;-45
2021/04/03 04:15:35;;;;;;;18.70;6.72;;;;;;;0.63;89.43;101863.53;5038201;28;20017;-44
2021/04/03 04:18:01;;;;;;;14.55;6.35;;;;;;;0.71;87.68;101863.56;5039206;28;20033;-47
2021/04/03 04:20:26;;;;;;;12.13;6.10;;;;;;;0.68;88.05;101863.03;5041369;28;20124;-44
2021/04/03 04:22:52;;;;;;;14.48;6.53;;;;;;;0.67;87.08;101867.50;5036249;28;20061;-45
2021/04/03 04:25:17;;;;;;;13.55;6.50;;;;;;;0.65;87.09;101864.19;5039684;28;20769;-45
2021/04/03 04:27:43;;;;;;;12.32;5.97;;;;;;;0.65;86.77;101864.19;5039061;28;20029;-47
2021/04/03 04:30:09;;;;;;;14.93;6.35;;;;;;;0.63;86.38;101874.06;5041299;28;20804;-45
2021/04/03 04:32:39;;;;;;;14.27;7.03;;;;;;;0.62;85.63;101875.06;5039366;28;20043;-44
2021/04/03 04:35:07;;;;;;;14.80;6.13;;;;;;;0.64;85.53;101883.63;5040904;28;20028;-45
2021/04/03 04:37:33;;;;;;;13.23;6.30;;;;;;;0.67;85.07;101888.59;5041003;28;20021;-47
2021/04/03 04:39:59;;;;;;;15.13;5.82;;;;;;;0.66;84.45;101888.75;5040319;28;20031;-45
2021/04/03 04:42:25;;;;;;;13.63;6.05;;;;;;;0.62;84.46;101893.50;5027919;28;20669;-45
2021/04/03 04:44:50;;;;;;;16.05;6.38;;;;;;;0.66;83.89;101892.22;5045862;28;20032;-44
2021/04/03 04:47:17;;;;;;;11.93;5.80;;;;;;;0.69;83.69;101894.53;5044531;28;20024;-45
2021/04/03 04:49:42;;;;;;;10.95;5.53;;;;;;;0.67;83.09;101901.78;5044063;28;20159;-45
2021/04/03 04:52:08;;;;;;;16.02;6.38;;;;;;;0.66;82.96;101907.22;5044575;28;20025;-45
2021/04/03 04:54:33;;;;;;;17.48;6.07;;;;;;;0.63;83.06;101911.00;5042823;28;20051;-45
2021/04/03 04:56:59;;;;;;;13.75;5.55;;;;;;;0.66;83.14;101915.13;5045131;28;20020;-45
2021/04/03 04:59:24;;;;;;;13.65;5.07;;;;;;;0.74;82.54;101912.56;5044033;28;20124;-44
2021/04/03 05:01:50;;;;;;;13.10;5.32;;;;;;;0.81;82.81;101914.41;5045764;28;20509;-45
2021/04/03 05:04:15;;;;;;;12.13;5.32;;;;;;;0.93;82.24;101920.25;5043292;28;20039;-44
2021/04/03 05:06:41;;;;;;;14.75;4.85;;;;;;;1.06;82.18;101922.47;5040142;28;20035;-46
2021/04/03 05:09:06;;;;;;;11.32;4.82;;;;;;;1.23;81.44;101926.84;5045187;28;20025;-47
2021/04/03 05:11:32;;;;;;;9.63;5.35;;;;;;;1.39;81.11;101926.09;5044843;28;20414;-46
2021/04/03 05:13:57;;;;;;;9.73;4.70;;;;;;;1.53;81.38;101930.75;5041688;28;20063;-45
2021/04/03 05:16:23;;;;;;;10.40;4.82;;;;;;;1.73;79.65;101924.22;5043284;28;20040;-45
2021/04/03 05:18:48;;;;;;;9.95;4.45;;;;;;;1.86;79.83;101936.97;5045245;28;20530;-45
2021/04/03 05:21:14;;;;;;;10.75;4.20;;;;;;;2.04;78.86;101942.97;5041934;28;20021;-44
2021/04/03 05:23:40;;;;;;;10.25;4.57;;;;;;;2.18;78.94;101964.47;5045862;28;20104;-46
2021/04/03 05:26:05;;;;;;;10.63;4.38;;;;;;;2.36;78.50;101951.94;5046000;28;20398;-46
2021/04/03 05:28:31;;;;;;;10.77;3.88;;;;;;;2.31;81.39;101947.09;5043459;28;20032;-47
2021/04/03 05:30:57;;;;;;;7.43;3.60;;;;;;;2.54;79.73;101952.59;5045651;28;20119;-46
2021/04/03 05:33:23;;;;;;;8.93;4.15;;;;;;;2.75;78.74;101965.31;5040819;28;20041;-48
2021/04/03 05:35:48;;;;;;;7.90;3.28;;;;;;;2.93;78.62;101975.72;5043721;28;20028;-47
2021/04/03 05:38:14;;;;;;;7.65;3.60;;;;;;;3.01;79.53;101970.38;5045737;28;20029;-48
2021/04/03 05:40:39;;;;;;;8.98;4.18;;;;;;;3.22;78.34;101969.84;5043564;28;20114;-46
2021/04/03 05:43:06;;;;;;;9.13;3.60;;;;;;;3.35;78.44;101980.72;5044584;28;20034;-47
2021/04/03 05:45:37;;;;;;;9.95;4.95;;;;;;;3.54;77.60;101963.63;5039398;28;20025;-47
2021/04/03 05:48:04;;;;;;;7.78;4.13;;;;;;;3.74;76.82;101964.84;5045146;28;20566;-45
2021/04/03 05:50:30;;;;;;;6.85;3.67;;;;;;;4.35;74.85;101973.78;5042878;28;20449;-46
2021/04/03 05:52:58;;;;;;;9.52;3.10;;;;;;;4.94;72.40;101968.63;5044459;28;20052;-46
2021/04/03 05:55:25;;;;;;;7.25;3.55;;;;;;;5.86;68.83;101968.22;5043489;28;20025;-46
2021/04/03 05:57:51;;;;;;;9.63;2.90;;;;;;;6.45;66.76;101963.53;5041170;28;20056;-46
2021/04/03 06:00:18;;;;;;;3.35;2.15;;;;;;;6.79;64.50;101972.63;5042607;28;20455;-48
2021/04/03 06:02:44;;;;;;;6.65;3.22;;;;;;;7.16;63.53;101974.94;5037720;28;20403;-48
2021/04/03 06:05:10;;;;;;;7.13;2.30;;;;;;;6.48;65.72;101973.00;5045078;28;20043;-47
2021/04/03 06:07:36;;;;;;;7.20;2.28;;;;;;;6.26;66.35;101980.94;5042848;28;20121;-47
2021/04/03 06:10:05;;;;;;;3.72;2.10;;;;;;;5.91;67.95;101982.63;5042901;28;20471;-46
2021/04/03 06:12:57;;;;;;;6.10;2.42;;;;;;;5.65;68.29;101985.75;5044234;28;20221;-48
2021/04/03 06:15:29;;;;;;;4.50;2.20;;;;;;;5.71;68.47;101985.00;5037035;28;20052;-46
2021/04/03 06:17:55;;;;;;;4.28;2.00;;;;;;;5.78;68.45;101989.59;5040647;28;20399;-48
2021/04/03 06:20:34;;;;;;;5.40;2.25;;;;;;;5.52;68.86;101998.06;5041832;28;20037;-47
2021/04/03 06:23:00;;;;;;;3.50;1.90;;;;;;;5.58;67.82;102000.81;5041749;28;20034;-46
2021/04/03 06:25:26;;;;;;;3.75;1.90;;;;;;;5.48;67.90;102005.56;5023494;28;20047;-47
2021/04/03 06:28:05;;;;;;;6.15;2.60;;;;;;;5.50;67.95;102005.38;5043064;28;20039;-47
2021/04/03 06:30:35;;;;;;;3.88;1.80;;;;;;;5.43;68.17;102000.00;5042787;28;20457;-49
2021/04/03 06:33:13;;;;;;;3.17;1.77;;;;;;;5.46;67.84;102012.91;5043733;28;20029;-49
2021/04/03 06:35:39;;;;;;;5.03;1.73;;;;;;;5.46;68.23;102010.25;5043491;28;20212;-47
2021/04/03 06:38:18;;;;;;;3.03;1.65;;;;;;;5.29;67.84;102008.78;5038370;28;20135;-49
2021/04/03 06:40:44;;;;;;;5.68;1.75;;;;;;;5.42;68.20;102017.78;5039141;28;20025;-47
2021/04/03 06:43:14;;;;;;;4.65;2.03;;;;;;;5.53;67.96;102021.78;5041713;28;20041;-47
2021/04/03 06:45:41;;;;;;;4.68;1.85;;;;;;;5.50;68.28;102024.00;5043240;28;20090;-47
2021/04/03 06:48:08;;;;;;;4.00;1.80;;;;;;;5.44;68.03;102028.22;5039152;28;20048;-46
2021/04/03 06:50:48;;;;;;;4.13;1.67;;;;;;;5.19;69.15;102024.16;5042826;28;20025;-48
2021/04/03 06:53:18;;;;;;;4.40;1.45;;;;;;;4.93;70.52;102030.69;5038073;28;20388;-47
2021/04/03 06:55:48;;;;;;;2.22;1.27;;;;;;;4.91;70.74;102035.38;5040274;28;20131;-46
2021/04/03 06:58:15;;;;;;;4.32;1.30;;;;;;;4.82;70.86;102033.78;5041740;28;20017;-47
2021/04/03 07:00:41;;;;;;;2.30;1.40;;;;;;;4.43;70.81;102016.16;5038532;28;20037;-47
2021/04/03 07:03:23;;;;;;;0.80;0.50;;;;;;;4.61;68.68;102023.00;5042229;28;20031;-46
2021/04/03 07:05:50;;;;;;;1.20;0.50;;;;;;;4.76;66.55;102029.19;5039175;28;20486;-46
2021/04/03 07:08:16;;;;;;;2.97;0.70;;;;;;;4.82;67.48;102047.88;5040882;28;20029;-47
2021/04/03 07:10:43;;;;;;;1.63;0.90;;;;;;;4.91;69.08;102048.66;5040051;28;20550;-46
2021/04/03 07:13:13;;;;;;;2.92;0.95;;;;;;;5.06;69.48;102060.16;5043372;28;20131;-48
2021/04/03 07:15:39;;;;;;;5.43;1.08;;;;;;;5.10;70.30;102056.13;5039074;28;20024;-46
2021/04/03 07:18:09;;;;;;;5.75;3.17;;;;;;;5.20;69.78;102068.31;5040020;28;20525;-48
2021/04/03 07:20:36;;;;;;;4.55;1.70;;;;;;;5.02;70.73;102061.50;5038328;28;20107;-48
2021/04/03 07:23:03;;;;;;;3.15;1.60;;;;;;;5.16;70.41;102068.66;5039430;28;20044;-46
2021/04/03 07:25:37;;;;;;;3.72;1.58;;;;;;;5.23;71.25;102073.28;5039834;28;20601;-47
2021/04/03 07:28:04;;;;;;;1.70;1.15;;;;;;;4.94;71.97;102074.84;5040382;28;20514;-46
2021/04/03 07:30:38;;;;;;;2.90;1.80;;;;;;;5.09;71.16;102075.72;5041827;28;20020;-46
2021/04/03 07:33:23;;;;;;;3.13;1.20;;;;;;;5.33;70.41;102074.66;5040711;28;20150;-47
2021/04/03 07:35:55;;;;;;;3.85;1.58;;;;;;;5.25;71.33;102079.25;5041819;28;20105;-48
2021/04/03 07:38:29;;;;;;;3.55;1.40;;;;;;;5.48;69.41;102080.00;5039912;28;20632;-47
2021/04/03 07:41:02;;;;;;;3.47;1.35;;;;;;;5.78;68.80;102093.31;5039522;28;20025;-47
2021/04/03 07:43:40;;;;;;;7.18;1.70;;;;;;;5.96;68.37;102091.97;5035962;28;20055;-46
2021/04/03 07:46:25;;;;;;;3.35;1.60;;;;;;;6.01;68.52;102097.56;5037956;28;20132;-49
2021/04/03 07:48:54;;;;;;;2.72;1.38;;;;;;;6.05;69.06;102103.31;5040560;28;20142;-48
2021/04/03 07:51:22;;;;;;;5.68;1.55;;;;;;;5.91;68.05;102104.16;5037996;28;20056;-47
2021/04/03 07:53:49;;;;;;;3.22;1.60;;;;;;;6.09;68.41;102111.75;5036147;28;20505;-48
2021/04/03 07:56:17;;;;;;;3.45;1.30;;;;;;;6.22;68.33;102115.41;5039776;28;20036;-46
2021/04/03 07:58:48;;;;;;;3.47;1.45;;;;;;;6.28;67.18;102121.81;5038567;28;20036;-49
2021/04/03 08:01:15;;;;;;;3.50;1.20;;;;;;;6.30;66.90;102118.00;5035938;28;20740;-49
2021/04/03 08:03:40;;;;;;;1.08;0.60;;;;;;;6.26;66.43;102114.03;5035835;28;20383;-47
2021/04/03 08:06:08;;;;;;;2.80;1.20;;;;;;;6.16;66.71;102115.34;5036402;28;20029;-46
2021/04/03 08:08:36;;;;;;;2.50;1.00;;;;;;;6.32;66.14;102118.63;5036390;28;20072;-46
2021/04/03 08:11:14;;;;;;;4.07;1.60;;;;;;;6.18;66.27;102114.16;5037061;28;20025;-48
2021/04/03 08:13:45;;;;;;;2.65;0.85;;;;;;;6.36;65.56;102114.56;5041403;28;20543;-47
2021/04/03 08:16:13;;;;;;;3.70;1.20;;;;;;;6.41;65.43;102114.00;5042049;28;20036;-47
2021/04/03 08:18:42;;;;;;;3.80;2.13;;;;;;;6.66;64.93;102117.19;5044111;28;20033;-46
2021/04/03 08:21:08;;;;;;;3.75;1.90;;;;;;;6.96;64.42;102121.34;5045316;28;20047;-50
2021/04/03 08:23:37;;;;;;;3.55;1.30;;;;;;;6.45;64.01;102127.75;5045831;28;20029;-46
2021/04/03 08:26:05;;;;;;;3.67;2.05;;;;;;;6.97;64.22;102123.00;5043985;28;20103;-47
2021/04/03 08:28:31;;;;;;;2.10;1.52;;;;;;;7.43;63.43;102119.94;5040767;28;20092;-47
2021/04/03 08:30:58;;;;;;;5.15;1.98;;;;;;;7.53;62.77;102131.06;5025677;28;20037;-49
2021/04/03 08:33:30;;;;;;;3.33;1.25;;;;;;;7.42;61.42;102128.94;5047707;28;20032;-47
2021/04/03 08:35:56;;;;;;;2.97;1.23;;;;;;;7.60;61.44;102131.13;5046320;28;20036;-49
2021/04/03 08:38:26;;;;;;;4.32;1.85;;;;;;;7.36;60.71;102135.06;5044747;28;20048;-47
2021/04/03 08:40:53;;;;;;;5.72;1.58;;;;;;;7.68;61.16;102135.47;5042226;28;20032;-46
2021/04/03 08:43:24;;;;;;;3.60;1.45;;;;;;;8.04;60.24;102138.78;5046840;28;20034;-47
2021/04/03 08:45:53;;;;;;;2.58;1.20;;;;;;;8.66;59.34;102139.69;5046257;28;20033;-46
2021/04/03 08:48:19;;;;;;;3.25;1.50;;;;;;;9.09;58.06;102134.84;5045114;28;20036;-49
2021/04/03 08:50:47;;;;;;;4.18;1.48;;;;;;;8.77;57.93;102137.25;5045534;28;20056;-46
2021/04/03 08:53:12;;;;;;;3.55;1.17;;;;;;;8.54;57.92;102136.78;5042004;28;20752;-46
2021/04/03 08:55:38;;;;;;;1.15;0.80;;;;;;;8.74;57.99;102144.84;5041707;28;20078;-46
2021/04/03 08:58:06;;;;;;;2.75;1.05;;;;;;;8.87;57.77;102136.03;5043527;28;20104;-46
2021/04/03 09:00:32;;;;;;;3.35;0.88;;;;;;;8.69;58.28;102153.47;5042370;28;20052;-46
2021/04/03 09:02:59;;;;;;;1.60;0.98;;;;;;;8.45;58.00;102149.50;5041782;28;20026;-48
2021/04/03 09:05:25;;;;;;;3.67;1.38;;;;;;;8.58;57.51;102151.38;5037464;28;20057;-47
2021/04/03 09:07:52;;;;;;;5.15;1.30;;;;;;;8.29;57.18;102157.00;5043631;28;20032;-47
2021/04/03 09:10:19;;;;;;;3.13;1.20;;;;;;;8.33;58.04;102156.38;5037085;28;20094;-47
2021/04/03 09:12:47;;;;;;;4.80;1.10;;;;;;;8.42;57.17;102159.72;5037183;28;20036;-46
2021/04/03 09:15:15;;;;;;;3.65;1.70;;;;;;;8.42;57.56;102162.41;5043429;28;20056;-49
2021/04/03 09:17:49;;;;;;;3.58;1.17;;;;;;;8.42;57.32;102159.72;5039633;28;20021;-47
2021/04/03 09:20:20;;;;;;;3.65;1.10;;;;;;;8.42;56.64;102160.56;5041858;28;20021;-48
2021/04/03 09:22:46;;;;;;;1.85;1.30;;;;;;;8.56;56.77;102160.63;5043452;28;20098;-47
2021/04/03 09:25:14;;;;;;;4.40;1.00;;;;;;;8.72;56.64;102153.06;5041863;28;20033;-47
2021/04/03 09:27:40;;;;;;;2.97;1.48;;;;;;;8.50;56.02;102151.56;5044605;28;20495;-47
2021/04/03 09:30:13;;;;;;;2.92;1.25;;;;;;;8.94;56.07;102148.38;5043045;28;20120;-47
2021/04/03 09:32:47;;;;;;;3.72;1.20;;;;;;;9.06;54.96;102156.63;5042180;28;20039;-48
2021/04/03 09:35:24;;;;;;;3.10;0.90;;;;;;;9.32;54.07;102145.13;5041244;28;20059;-47
2021/04/03 09:38:03;;;;;;;4.75;1.08;;;;;;;9.60;54.01;102142.25;5043292;28;20025;-49
2021/04/03 09:40:38;;;;;;;1.45;1.10;;;;;;;9.71;53.03;102154.19;5045774;28;20172;-47
2021/04/03 09:43:04;;;;;;;3.13;0.90;;;;;;;9.63;53.11;102152.53;5044228;28;20029;-47
2021/04/03 09:45:30;;;;;;;2.05;1.05;;;;;;;9.63;52.78;102144.50;5041828;28;20118;-48
2021/04/03 09:47:59;;;;;;;2.83;1.20;;;;;;;9.55;51.73;102155.44;5045293;28;20104;-48
2021/04/03 09:50:26;;;;;;;2.35;1.25;;;;;;;9.59;52.67;102145.97;5041287;28;20040;-47
2021/04/03 09:52:54;;;;;;;3.90;1.45;;;;;;;9.85;52.20;102150.44;5044890;28;20029;-47
2021/04/03 09:55:20;;;;;;;2.55;1.20;;;;;;;9.79;51.53;102146.75;5039969;28;20024;-49
2021/04/03 09:57:46;;;;;;;1.00;0.60;;;;;;;9.90;50.35;102159.50;5044845;28;20033;-49
2021/04/03 10:00:12;;;;;;;4.90;1.33;;;;;;;9.75;49.95;102150.06;5046396;28;20092;-49
2021/04/03 10:02:38;;;;;;;1.25;0.75;;;;;;;9.64;51.05;102152.31;5041279;28;20029;-47
2021/04/03 10:05:04;;;;;;;2.03;0.80;;;;;;;9.30;51.24;102155.22;5041133;28;20518;-48
2021/04/03 10:07:30;;;;;;;1.75;0.80;;;;;;;9.27;51.05;102163.66;5042473;28;20079;-49
2021/04/03 10:09:56;;;;;;;3.78;1.00;;;;;;;9.07;50.51;102169.81;5039582;28;20575;-47
2021/04/03 10:12:21;;;;;;;6.95;0.80;;;;;;;8.54;51.52;102179.50;5042762;28;20029;-49
2021/04/03 10:14:47;;;;;;;6.53;1.45;;;;;;;8.37;51.75;102194.22;5037428;28;20495;-49
2021/04/03 10:17:12;;;;;;;0.90;0.40;;;;;;;7.93;52.03;102200.72;5043287;28;20036;-47
2021/04/03 10:19:38;;;;;;;2.08;0.22;;;;;;;7.73;51.65;102210.44;5041196;28;20116;-47
2021/04/03 10:22:04;;;;;;;0.65;0.52;;;;;;;7.50;52.00;102211.47;5042059;28;20123;-47
2021/04/03 10:24:30;;;;;;;1.00;0.40;;;;;;;6.98;52.72;102209.94;5041303;28;20095;-47
2021/04/03 10:26:55;;;;;;;1.90;0.65;;;;;;;7.34;51.68;102210.91;5039197;28;20032;-46
2021/04/03 10:29:21;;;;;;;1.10;0.50;;;;;;;7.54;50.88;102209.22;5043467;28;20375;-46
2021/04/03 10:31:46;;;;;;;0.40;0.35;;;;;;;7.57;49.31;102203.53;5040277;28;20039;-49
2021/04/03 10:34:12;;;;;;;0.52;0.50;;;;;;;7.91;50.97;102208.13;5037122;28;20048;-46
2021/04/03 10:36:38;;;;;;;1.58;0.80;;;;;;;8.29;51.36;102210.41;5044572;28;20912;-46
2021/04/03 10:39:04;;;;;;;4.35;0.90;;;;;;;8.53;52.43;102214.44;5032575;28;20039;-47
2021/04/03 10:41:31;;;;;;;5.55;1.00;;;;;;;8.90;52.08;102216.66;5031564;28;20044;-49
2021/04/03 10:43:56;;;;;;;2.22;0.80;;;;;;;8.78;52.71;102216.38;5036523;28;20041;-46
2021/04/03 10:46:31;;;;;;;1.98;0.80;;;;;;;9.13;51.69;102220.81;5030173;28;20036;-49
2021/04/03 10:48:57;;;;;;;2.53;0.63;;;;;;;9.62;51.04;102212.44;5036903;28;20068;-49
2021/04/03 10:51:23;;;;;;;1.45;0.63;;;;;;;9.74;51.13;102216.16;5027155;28;20029;-48
2021/04/03 10:53:48;;;;;;;1.27;0.65;;;;;;;9.89;50.13;102216.75;5023292;28;20032;-47
2021/04/03 10:56:14;;;;;;;2.80;0.60;;;;;;;9.57;51.22;102226.44;5034781;28;20106;-48
2021/04/03 10:58:40;;;;;;;2.35;1.25;;;;;;;9.53;53.17;102229.75;5028219;28;20021;-48
2021/04/03 11:01:05;;;;;;;3.13;0.77;;;;;;;8.98;54.16;102235.19;5033871;28;20724;-48
2021/04/03 11:03:31;;;;;;;3.80;1.02;;;;;;;9.15;53.51;102227.59;5029008;28;20116;-48
2021/04/03 11:05:56;;;;;;;1.35;0.57;;;;;;;9.37;51.55;102226.44;5031456;28;20060;-47
2021/04/03 11:08:22;;;;;;;1.05;0.60;;;;;;;9.61;50.88;102221.50;5040602;28;20052;-47
2021/04/03 11:10:47;;;;;;;4.65;1.20;;;;;;;9.77;50.40;102221.09;5035579;28;20495;-49
2021/04/03 11:13:13;;;;;;;1.35;0.63;;;;;;;10.25;50.11;102218.19;5033269;28;20025;-49
2021/04/03 11:15:39;;;;;;;3.13;0.93;;;;;;;9.94;48.16;102219.63;5024493;28;20024;-47
2021/04/03 11:18:05;;;;;;;2.33;0.70;;;;;;;10.19;47.15;102224.31;5028804;28;20407;-46
2021/04/03 11:20:30;;;;;;;2.55;0.70;;;;;;;9.66;47.33;102229.72;5034897;28;20036;-46
2021/04/03 11:22:57;;;;;;;2.38;0.60;;;;;;;9.71;48.11;102229.94;5031902;28;20033;-46
2021/04/03 11:25:23;;;;;;;0.60;0.60;;;;;;;9.70;47.25;102228.31;5036773;28;20035;-48
2021/04/03 11:27:48;;;;;;;1.27;0.50;;;;;;;10.14;46.77;102232.16;5040637;28;20033;-49
2021/04/03 11:30:14;;;;;;;2.22;0.55;;;;;;;10.28;44.87;102217.75;5040992;28;20029;-47
2021/04/03 11:32:45;;;;;;;3.30;0.55;;;;;;;10.37;45.25;102224.50;5033352;28;20029;-48
2021/04/03 11:35:13;;;;;;;1.13;0.57;;;;;;;10.04;44.54;102234.44;5039382;28;20028;-47